createdAt,value
2019-04-10T00:00:47.808Z,8.30
2019-04-10T00:03:25.568Z,8.30
2019-04-10T00:05:44.495Z,8.30
2019-04-10T00:08:12.300Z,8.20
2019-04-10T00:10:40.232Z,8.20
2019-04-10T00:13:08.367Z,8.10
2019-04-10T00:15:35.263Z,8.00
2019-04-10T00:18:02.260Z,8.00
2019-04-10T00:20:29.461Z,8.10
2019-04-10T00:22:56.470Z,8.00
2019-04-10T00:25:24.436Z,8.00
2019-04-10T00:27:52.650Z,8.10
2019-04-10T00:30:20.740Z,8.00
2019-04-10T00:32:48.108Z,8.00
2019-04-10T00:35:15.334Z,8.00
2019-04-10T00:37:42.872Z,7.90
2019-04-10T00:40:10.955Z,7.90
2019-04-10T00:42:38.042Z,7.80
2019-04-10T00:45:05.095Z,7.80
2019-04-10T00:47:32.051Z,7.80
2019-04-10T00:49:59.017Z,7.70
2019-04-10T00:52:26.194Z,7.60
2019-04-10T00:54:53.246Z,7.60
2019-04-10T00:57:21.238Z,7.50
2019-04-10T00:59:48.429Z,7.50
2019-04-10T01:02:16.460Z,7.50
2019-04-10T01:04:44.458Z,7.50
2019-04-10T01:07:12.665Z,7.50
2019-04-10T01:09:39.789Z,7.60
2019-04-10T01:12:07.712Z,7.60
2019-04-10T01:14:35.881Z,7.40
2019-04-10T01:17:04.020Z,7.30
2019-04-10T01:19:32.190Z,7.30
2019-04-10T01:21:59.449Z,7.20
2019-04-10T01:24:26.419Z,7.30
2019-04-10T01:26:53.802Z,7.20
2019-04-10T01:29:21.715Z,7.20
2019-04-10T01:31:48.638Z,7.10
2019-04-10T01:34:15.556Z,7.10
2019-04-10T01:36:42.553Z,7.10
2019-04-10T01:39:15.890Z,7.10
2019-04-10T01:41:43.880Z,7.10
2019-04-10T01:44:11.108Z,7.00
2019-04-10T01:46:38.183Z,7.00
2019-04-10T01:49:05.331Z,7.00
2019-04-10T01:51:33.466Z,7.20
2019-04-10T01:54:00.623Z,7.10
2019-04-10T01:56:31.834Z,6.90
2019-04-10T01:58:57.293Z,6.90
2019-04-10T02:01:29.971Z,6.90
2019-04-10T02:03:58.381Z,7.00
2019-04-10T02:06:25.741Z,7.00
2019-04-10T02:08:52.649Z,6.90
2019-04-10T02:11:19.682Z,6.90
2019-04-10T02:13:47.596Z,6.90
2019-04-10T02:16:15.092Z,6.90
2019-04-10T02:18:42.027Z,6.80
2019-04-10T02:21:09.588Z,6.70
2019-04-10T02:23:36.594Z,6.70
2019-04-10T02:26:05.391Z,6.70
2019-04-10T02:28:33.281Z,6.70
2019-04-10T02:31:00.677Z,6.70
2019-04-10T02:33:29.262Z,6.70
2019-04-10T02:35:57.131Z,6.70
2019-04-10T02:38:38.993Z,6.60
2019-04-10T02:40:53.228Z,6.70
2019-04-10T02:43:21.127Z,6.70
2019-04-10T02:45:49.404Z,6.60
2019-04-10T02:48:17.119Z,6.60
2019-04-10T02:50:44.957Z,6.50
2019-04-10T02:53:13.092Z,6.40
2019-04-10T02:55:40.916Z,6.40
2019-04-10T02:58:09.647Z,6.30
2019-04-10T03:00:37.882Z,6.30
2019-04-10T03:03:05.536Z,6.30
2019-04-10T03:05:34.420Z,6.20
2019-04-10T03:08:01.980Z,6.20
2019-04-10T03:10:38.231Z,6.20
2019-04-10T03:12:59.304Z,6.10
2019-04-10T03:15:29.501Z,6.10
2019-04-10T03:17:56.654Z,6.00
2019-04-10T03:20:24.622Z,6.00
2019-04-10T03:22:51.978Z,6.00
2019-04-10T03:25:19.461Z,6.00
2019-04-10T03:27:46.901Z,6.00
2019-04-10T03:30:18.096Z,5.90
2019-04-10T03:33:07.434Z,5.90
2019-04-10T03:35:37.382Z,5.80
2019-04-10T03:38:04.402Z,5.70
2019-04-10T03:40:31.441Z,5.70
2019-04-10T03:42:58.389Z,5.70
2019-04-10T03:45:25.375Z,5.70
2019-04-10T03:47:52.362Z,5.60
2019-04-10T03:50:19.534Z,5.60
2019-04-10T03:52:46.547Z,5.60
2019-04-10T03:55:13.606Z,5.50
2019-04-10T03:57:40.780Z,5.50
2019-04-10T04:00:08.194Z,5.40
2019-04-10T04:02:35.959Z,5.40
2019-04-10T04:05:04.334Z,5.40
2019-04-10T04:07:32.549Z,5.30
2019-04-10T04:10:00.187Z,5.20
2019-04-10T04:12:27.229Z,5.20
2019-04-10T04:14:54.936Z,5.10
2019-04-10T04:17:22.326Z,5.10
2019-04-10T04:19:49.255Z,5.10
2019-04-10T04:22:16.706Z,5.10
2019-04-10T04:24:44.053Z,5.00
2019-04-10T04:27:11.203Z,5.00
2019-04-10T04:29:39.118Z,5.00
2019-04-10T04:32:06.966Z,5.00
2019-04-10T04:34:34.676Z,5.00
2019-04-10T04:37:02.467Z,5.00
2019-04-10T04:39:30.483Z,4.90
2019-04-10T04:41:58.805Z,4.80
2019-04-10T04:44:26.968Z,4.70
2019-04-10T04:46:54.197Z,4.70
2019-04-10T04:49:21.186Z,4.70
2019-04-10T04:51:48.366Z,4.60
2019-04-10T04:54:15.255Z,4.60
2019-04-10T04:56:42.301Z,4.60
2019-04-10T04:59:10.177Z,4.60
2019-04-10T05:01:38.305Z,4.60
2019-04-10T05:04:05.480Z,4.60
2019-04-10T05:06:32.977Z,4.60
2019-04-10T05:09:00.477Z,4.60
2019-04-10T05:11:27.347Z,4.60
2019-04-10T05:13:55.828Z,4.50
2019-04-10T05:16:22.900Z,4.50
2019-04-10T05:18:50.112Z,4.50
2019-04-10T05:21:17.441Z,4.50
2019-04-10T05:23:44.323Z,4.60
2019-04-10T05:26:11.359Z,4.60
2019-04-10T05:28:38.778Z,4.60
2019-04-10T05:31:06.794Z,4.60
2019-04-10T05:33:33.813Z,4.60
2019-04-10T05:36:01.342Z,4.60
2019-04-10T05:38:29.163Z,4.60
2019-04-10T05:40:57.081Z,4.70
2019-04-10T05:43:24.158Z,4.70
2019-04-10T05:45:51.201Z,4.80
2019-04-10T05:48:21.765Z,4.90
2019-04-10T05:50:53.978Z,4.80
2019-04-10T05:53:16.260Z,4.90
2019-04-10T05:55:43.426Z,5.00
2019-04-10T05:58:10.470Z,5.10
2019-04-10T06:00:38.146Z,5.00
2019-04-10T06:03:06.185Z,5.00
2019-04-10T06:05:34.170Z,5.10
2019-04-10T06:08:01.384Z,5.10
2019-04-10T06:10:28.604Z,5.20
2019-04-10T06:12:55.941Z,5.20
2019-04-10T06:15:23.238Z,5.30
2019-04-10T06:17:51.000Z,5.40
2019-04-10T06:20:18.136Z,5.30
2019-04-10T06:22:47.222Z,5.30
2019-04-10T06:25:16.074Z,5.40
2019-04-10T06:27:43.125Z,5.30
2019-04-10T06:30:10.104Z,5.40
2019-04-10T06:32:37.715Z,5.40
2019-04-10T06:35:05.777Z,5.40
2019-04-10T06:37:33.086Z,5.40
2019-04-10T06:40:10.789Z,5.50
2019-04-10T06:42:29.610Z,5.40
2019-04-10T06:44:56.562Z,5.40
2019-04-10T06:47:24.361Z,5.40
2019-04-10T06:49:51.315Z,5.50
2019-04-10T06:52:18.630Z,5.60
2019-04-10T06:54:45.637Z,5.60
2019-04-10T06:57:12.523Z,5.70
2019-04-10T06:59:39.869Z,5.90
2019-04-10T07:02:18.521Z,5.90
2019-04-10T07:04:44.991Z,6.00
2019-04-10T07:07:09.403Z,6.10
2019-04-10T07:09:33.860Z,6.20
2019-04-10T07:12:03.015Z,6.20
2019-04-10T07:14:30.203Z,6.30
2019-04-10T07:17:00.693Z,6.30
2019-04-10T07:19:26.188Z,6.30
2019-04-10T07:21:53.350Z,6.40
2019-04-10T07:24:20.858Z,6.50
2019-04-10T07:26:50.524Z,6.50
2019-04-10T07:29:21.057Z,6.60
2019-04-10T07:31:46.634Z,6.80
2019-04-10T07:34:13.848Z,6.90
2019-04-10T07:36:42.485Z,7.00
2019-04-10T07:39:09.714Z,7.00
2019-04-10T07:41:37.773Z,7.00
2019-04-10T07:44:05.793Z,7.10
2019-04-10T07:46:34.596Z,7.10
2019-04-10T07:49:02.855Z,7.20
2019-04-10T07:51:29.928Z,7.40
2019-04-10T07:53:57.716Z,7.40
2019-04-10T07:56:24.890Z,7.50
2019-04-10T07:58:51.958Z,7.50
2019-04-10T08:01:19.130Z,7.60
2019-04-10T08:03:46.534Z,7.70
2019-04-10T08:06:13.609Z,7.90
2019-04-10T08:08:40.821Z,7.90
2019-04-10T08:11:07.660Z,8.10
2019-04-10T08:13:34.514Z,8.30
2019-04-10T08:16:01.476Z,8.50
2019-04-10T08:18:29.539Z,8.50
2019-04-10T08:20:57.292Z,8.70
2019-04-10T08:23:24.599Z,8.80
2019-04-10T08:25:51.688Z,8.90
2019-04-10T08:28:19.756Z,8.90
2019-04-10T08:30:46.798Z,8.90
2019-04-10T08:33:14.041Z,9.00
2019-04-10T08:35:41.932Z,9.10
2019-04-10T08:38:09.766Z,9.20
2019-04-10T08:40:36.855Z,9.30
2019-04-10T08:43:04.224Z,9.50
2019-04-10T08:45:40.141Z,9.60
2019-04-10T08:48:01.353Z,9.70
2019-04-10T08:50:28.385Z,9.90
2019-04-10T08:52:55.768Z,10.20
2019-04-10T08:55:23.950Z,10.50
2019-04-10T08:57:52.326Z,10.60
2019-04-10T09:00:20.573Z,10.80
2019-04-10T09:02:48.630Z,10.60
2019-04-10T09:05:15.702Z,10.70
2019-04-10T09:07:42.561Z,10.90
2019-04-10T09:10:10.261Z,10.90
2019-04-10T09:12:37.271Z,11.10
2019-04-10T09:15:05.593Z,11.10
2019-04-10T09:17:33.417Z,11.30
2019-04-10T09:20:00.704Z,11.50
2019-04-10T09:22:28.857Z,11.70
2019-04-10T09:24:56.456Z,11.70
2019-04-10T09:27:23.337Z,11.60
2019-04-10T09:29:50.253Z,11.70
2019-04-10T09:32:18.062Z,11.70
2019-04-10T09:34:46.835Z,11.90
2019-04-10T09:37:15.647Z,12.10
2019-04-10T09:39:43.422Z,12.20
2019-04-10T09:42:10.717Z,12.40
2019-04-10T09:44:40.018Z,12.40
2019-04-10T09:47:07.757Z,12.60
2019-04-10T09:49:40.440Z,12.90
2019-04-10T09:52:04.738Z,13.20
2019-04-10T09:54:32.879Z,13.40
2019-04-10T09:57:01.203Z,13.50
2019-04-10T09:59:35.861Z,13.50
2019-04-10T10:01:56.936Z,13.80
2019-04-10T10:04:23.856Z,14.00
2019-04-10T10:06:51.489Z,13.90
2019-04-10T10:09:19.477Z,13.70
2019-04-10T10:11:47.014Z,13.80
2019-04-10T10:14:14.535Z,14.10
2019-04-10T10:16:42.191Z,14.30
2019-04-10T10:19:10.003Z,14.50
2019-04-10T10:21:36.983Z,14.50
2019-04-10T10:24:04.540Z,14.30
2019-04-10T10:26:32.854Z,14.10
2019-04-10T10:29:00.702Z,14.00
2019-04-10T10:31:28.482Z,14.10
2019-04-10T10:33:56.460Z,14.30
2019-04-10T10:36:35.501Z,14.80
2019-04-10T10:39:03.576Z,14.90
2019-04-10T10:41:22.553Z,15.30
2019-04-10T10:43:49.467Z,16.40
2019-04-10T10:46:17.522Z,18.30
2019-04-10T10:48:44.631Z,20.00
2019-04-10T10:51:11.485Z,21.10
2019-04-10T10:53:38.605Z,22.00
2019-04-10T10:56:06.352Z,22.40
2019-04-10T10:58:33.397Z,23.00
2019-04-10T11:01:00.245Z,23.50
2019-04-10T11:03:27.413Z,24.30
2019-04-10T11:05:54.919Z,25.10
2019-04-10T11:08:22.060Z,25.20
2019-04-10T11:10:54.041Z,24.00
2019-04-10T11:13:19.141Z,24.20
2019-04-10T11:15:46.312Z,23.50
2019-04-10T11:18:13.896Z,23.60
2019-04-10T11:20:41.785Z,23.90
2019-04-10T11:23:09.530Z,24.30
2019-04-10T11:25:37.733Z,24.70
2019-04-10T11:28:05.944Z,25.00
2019-04-10T11:30:34.454Z,25.20
2019-04-10T11:33:02.582Z,26.10
2019-04-10T11:35:31.568Z,26.00
2019-04-10T11:38:00.846Z,26.80
2019-04-10T11:40:28.371Z,27.20
2019-04-10T11:42:57.592Z,27.00
2019-04-10T11:45:28.755Z,26.60
2019-04-10T11:47:54.477Z,26.60
2019-04-10T11:50:21.849Z,26.90
2019-04-10T11:52:53.448Z,27.20
2019-04-10T11:55:21.344Z,26.90
2019-04-10T11:57:49.729Z,27.10
2019-04-10T12:00:23.839Z,27.60
2019-04-10T12:02:52.873Z,28.10
2019-04-10T12:05:21.923Z,27.80
2019-04-10T12:08:10.933Z,27.70
2019-04-10T12:12:48.045Z,27.00
2019-04-10T12:15:17.101Z,27.30
2019-04-10T12:17:44.448Z,27.70
2019-04-10T12:20:11.756Z,27.90
2019-04-10T12:22:38.817Z,28.40
2019-04-10T12:25:06.960Z,27.80
2019-04-10T12:27:33.961Z,27.70
2019-04-10T12:30:00.814Z,27.70
2019-04-10T12:32:28.556Z,27.90
2019-04-10T12:34:56.309Z,28.40
2019-04-10T12:37:23.617Z,28.60
2019-04-10T12:39:50.597Z,28.90
2019-04-10T12:42:17.475Z,28.90
2019-04-10T12:44:44.319Z,28.80
2019-04-10T12:47:11.761Z,28.90
2019-04-10T12:49:39.377Z,29.30
2019-04-10T12:52:06.349Z,28.60
2019-04-10T12:54:33.513Z,28.40
2019-04-10T12:57:00.485Z,27.70
2019-04-10T12:59:27.782Z,27.80
2019-04-10T13:01:55.465Z,27.80
2019-04-10T13:04:24.687Z,28.20
2019-04-10T13:06:52.748Z,27.50
2019-04-10T13:09:20.122Z,28.10
2019-04-10T13:11:46.995Z,27.60
2019-04-10T13:14:14.770Z,26.90
2019-04-10T13:16:42.739Z,27.40
2019-04-10T13:19:09.832Z,27.50
2019-04-10T13:21:39.097Z,27.40
2019-04-10T13:24:05.965Z,28.10
2019-04-10T13:26:32.826Z,28.70
2019-04-10T13:29:00.146Z,28.80
2019-04-10T13:31:27.704Z,28.90
2019-04-10T13:33:55.346Z,28.40
2019-04-10T13:36:22.288Z,28.30
2019-04-10T13:38:50.531Z,27.10
2019-04-10T13:41:18.540Z,27.40
2019-04-10T13:43:46.381Z,27.70
2019-04-10T13:46:13.795Z,28.10
2019-04-10T13:48:41.693Z,27.20
2019-04-10T13:51:08.676Z,27.30
2019-04-10T13:53:35.521Z,27.80
2019-04-10T13:56:04.470Z,27.40
2019-04-10T13:58:31.521Z,26.80
2019-04-10T14:00:58.885Z,27.00
2019-04-10T14:03:26.081Z,27.00
2019-04-10T14:05:53.424Z,27.00
2019-04-10T14:08:27.609Z,27.10
2019-04-10T14:10:50.789Z,28.00
2019-04-10T14:13:17.937Z,27.90
2019-04-10T14:15:44.893Z,28.20
2019-04-10T14:18:12.412Z,27.80
2019-04-10T14:20:39.516Z,27.70
2019-04-10T14:23:14.549Z,27.80
2019-04-10T14:25:52.826Z,27.80
2019-04-10T14:28:21.954Z,27.50
2019-04-10T14:30:49.493Z,27.70
2019-04-10T14:33:16.453Z,27.90
2019-04-10T14:35:43.568Z,27.90
2019-04-10T14:38:10.953Z,27.70
2019-04-10T14:40:38.405Z,27.50
2019-04-10T14:43:05.813Z,27.50
2019-04-10T14:45:33.255Z,27.60
2019-04-10T14:48:00.642Z,27.10
2019-04-10T14:50:28.205Z,26.50
2019-04-10T14:52:55.520Z,25.90
2019-04-10T14:55:22.738Z,25.80
2019-04-10T14:57:50.906Z,25.40
2019-04-10T15:00:39.064Z,25.20
2019-04-10T15:03:06.962Z,25.40
2019-04-10T15:05:44.867Z,25.80
2019-04-10T15:08:03.708Z,25.70
2019-04-10T15:10:31.086Z,25.10
2019-04-10T15:13:07.515Z,25.10
2019-04-10T15:15:28.119Z,25.00
2019-04-10T15:17:58.139Z,25.10
2019-04-10T15:20:25.589Z,25.40
2019-04-10T15:22:52.720Z,25.20
2019-04-10T15:25:19.888Z,25.30
2019-04-10T15:27:46.899Z,25.40
2019-04-10T15:30:15.055Z,24.80
2019-04-10T15:32:42.173Z,24.40
2019-04-10T15:35:10.431Z,24.30
2019-04-10T15:37:37.749Z,23.90
2019-04-10T15:40:17.709Z,23.60
2019-04-10T15:42:34.687Z,23.50
2019-04-10T15:45:03.099Z,23.20
2019-04-10T15:47:31.286Z,23.30
2019-04-10T15:49:59.803Z,23.50
2019-04-10T15:52:29.137Z,23.60
2019-04-10T15:54:57.401Z,23.50
2019-04-10T15:57:24.995Z,23.50
2019-04-10T15:59:52.545Z,23.50
2019-04-10T16:02:21.620Z,23.40
2019-04-10T16:04:48.976Z,23.00
2019-04-10T16:07:16.507Z,22.50
2019-04-10T16:09:49.949Z,22.40
2019-04-10T16:12:17.121Z,21.90
2019-04-10T16:14:44.486Z,21.60
2019-04-10T16:17:34.705Z,21.10
2019-04-10T16:20:21.748Z,20.40
2019-04-10T16:23:08.069Z,19.40
2019-04-10T16:25:36.202Z,18.80
2019-04-10T16:28:04.380Z,18.20
2019-04-10T16:30:32.858Z,18.10
2019-04-10T16:33:00.805Z,18.00
2019-04-10T16:35:29.488Z,17.90
2019-04-10T16:37:58.034Z,18.00
2019-04-10T16:40:26.866Z,17.80
2019-04-10T16:42:55.094Z,17.60
2019-04-10T16:45:22.666Z,17.30
2019-04-10T16:47:50.376Z,16.80
2019-04-10T16:50:17.580Z,16.60
2019-04-10T16:52:45.308Z,16.30
2019-04-10T16:55:12.633Z,16.00
2019-04-10T16:57:40.050Z,15.90
2019-04-10T17:00:07.946Z,15.60
2019-04-10T17:02:35.953Z,15.10
2019-04-10T17:05:05.978Z,15.10
2019-04-10T17:07:33.483Z,15.00
2019-04-10T17:10:12.817Z,14.60
2019-04-10T17:12:31.075Z,13.90
2019-04-10T17:14:58.256Z,13.50
2019-04-10T17:17:26.339Z,13.10
2019-04-10T17:19:56.415Z,12.90
2019-04-10T17:22:30.880Z,12.70
2019-04-10T17:24:51.600Z,12.40
2019-04-10T17:27:19.453Z,12.30
2019-04-10T17:29:47.320Z,12.10
2019-04-10T17:32:15.215Z,12.00
2019-04-10T17:34:43.091Z,11.90
2019-04-10T17:37:10.085Z,11.80
2019-04-10T17:39:37.667Z,11.60
2019-04-10T17:42:06.166Z,11.60
2019-04-10T17:44:33.838Z,11.40
2019-04-10T17:47:01.825Z,11.40
2019-04-10T17:49:29.871Z,11.30
2019-04-10T17:51:56.987Z,11.20
2019-04-10T17:54:24.953Z,11.10
2019-04-10T17:56:52.747Z,11.00
2019-04-10T17:59:20.444Z,10.90
2019-04-10T18:01:47.476Z,10.70
2019-04-10T18:04:15.948Z,10.60
2019-04-10T18:06:44.523Z,10.60
2019-04-10T18:09:11.847Z,10.50
2019-04-10T18:11:39.478Z,10.40
2019-04-10T18:14:07.000Z,10.30
2019-04-10T18:16:34.127Z,10.20
2019-04-10T18:19:02.124Z,10.10
2019-04-10T18:21:29.160Z,10.10
2019-04-10T18:23:56.397Z,10.10
2019-04-10T18:26:23.660Z,10.00
2019-04-10T18:28:51.887Z,9.90
2019-04-10T18:31:18.896Z,9.80
2019-04-10T18:33:46.853Z,9.70
2019-04-10T18:36:13.837Z,9.60
2019-04-10T18:38:41.706Z,9.50
2019-04-10T18:41:09.231Z,9.50
2019-04-10T18:43:36.651Z,9.50
2019-04-10T18:46:10.780Z,9.40
2019-04-10T18:48:32.523Z,9.40
2019-04-10T18:51:01.483Z,9.30
2019-04-10T18:53:28.955Z,9.20
2019-04-10T18:55:56.597Z,9.10
2019-04-10T18:58:27.575Z,9.10
2019-04-10T19:01:14.730Z,9.00
2019-04-10T19:04:05.828Z,8.90
2019-04-10T19:06:51.529Z,8.80
2019-04-10T19:09:24.618Z,8.80
2019-04-10T19:11:48.580Z,8.80
2019-04-10T19:14:16.291Z,8.70
2019-04-10T19:16:43.605Z,8.80
2019-04-10T19:19:12.396Z,8.80
2019-04-10T19:21:39.877Z,8.70
2019-04-10T19:24:08.137Z,8.70
2019-04-10T19:26:35.570Z,8.60
2019-04-10T19:29:03.330Z,8.70
2019-04-10T19:31:34.726Z,8.60
2019-04-10T19:34:01.084Z,8.50
2019-04-10T19:36:28.119Z,8.50
2019-04-10T19:38:55.887Z,8.50
2019-04-10T19:41:29.614Z,8.50
2019-04-10T19:43:52.668Z,8.40
2019-04-10T19:46:20.159Z,8.30
2019-04-10T19:48:50.093Z,8.20
2019-04-10T19:51:16.401Z,8.20
2019-04-10T19:53:43.698Z,8.10
2019-04-10T19:56:12.662Z,8.10
2019-04-10T19:58:39.864Z,8.10
2019-04-10T20:01:06.989Z,8.00
2019-04-10T20:03:35.402Z,8.00
2019-04-10T20:06:03.722Z,8.00
2019-04-10T20:08:31.340Z,7.90
2019-04-10T20:10:58.537Z,7.90
2019-04-10T20:13:25.430Z,7.90
2019-04-10T20:15:53.037Z,7.70
2019-04-10T20:18:21.020Z,7.70
2019-04-10T20:20:48.478Z,7.70
2019-04-10T20:23:15.979Z,7.60
2019-04-10T20:25:42.977Z,7.50
2019-04-10T20:28:09.951Z,7.50
2019-04-10T20:30:37.132Z,7.50
2019-04-10T20:33:04.210Z,7.50
2019-04-10T20:35:32.003Z,7.40
2019-04-10T20:37:59.129Z,7.40
2019-04-10T20:40:26.064Z,7.30
2019-04-10T20:42:54.157Z,7.30
2019-04-10T20:45:21.652Z,7.30
2019-04-10T20:47:49.725Z,7.30
2019-04-10T20:50:17.547Z,7.30
2019-04-10T20:52:45.285Z,7.30
2019-04-10T20:55:13.208Z,7.20
2019-04-10T20:57:40.501Z,7.20
2019-04-10T21:00:09.870Z,7.10
2019-04-10T21:02:38.310Z,7.00
2019-04-10T21:05:08.010Z,7.10
2019-04-10T21:07:35.328Z,7.10
2019-04-10T21:10:04.294Z,7.00
2019-04-10T21:12:32.469Z,7.00
2019-04-10T21:14:59.705Z,7.00
2019-04-10T21:17:27.577Z,6.90
2019-04-10T21:19:55.864Z,6.80
2019-04-10T21:22:22.941Z,6.90
2019-04-10T21:24:49.950Z,6.80
2019-04-10T21:27:16.908Z,6.80
2019-04-10T21:29:48.471Z,6.80
2019-04-10T21:32:34.899Z,6.70
2019-04-10T21:35:02.157Z,6.80
2019-04-10T21:37:29.089Z,6.70
2019-04-10T21:39:56.266Z,6.70
2019-04-10T21:42:25.308Z,6.60
2019-04-10T21:44:53.362Z,6.70
2019-04-10T21:47:21.523Z,6.60
2019-04-10T21:49:48.654Z,6.50
2019-04-10T21:52:16.888Z,6.50
2019-04-10T21:54:49.711Z,6.50
2019-04-10T21:57:12.549Z,6.50
2019-04-10T21:59:40.884Z,6.40
2019-04-10T22:02:08.039Z,6.40
2019-04-10T22:04:35.064Z,6.30
2019-04-10T22:07:27.984Z,6.40
2019-04-10T22:10:07.729Z,6.30
2019-04-10T22:12:40.536Z,6.40
2019-04-10T22:15:12.748Z,6.30
2019-04-10T22:17:40.467Z,6.30
2019-04-10T22:20:07.793Z,6.20
2019-04-10T22:22:35.092Z,6.10
2019-04-10T22:25:03.329Z,6.10
2019-04-10T22:27:31.630Z,6.00
2019-04-10T22:29:58.929Z,6.00
2019-04-10T22:32:26.854Z,5.90
2019-04-10T22:34:54.930Z,5.90
2019-04-10T22:37:22.007Z,5.90
2019-04-10T22:39:50.496Z,5.90
2019-04-10T22:42:17.531Z,5.90
2019-04-10T22:44:46.427Z,5.90
2019-04-10T22:47:14.681Z,5.80
2019-04-10T22:49:42.764Z,5.80
2019-04-10T22:52:10.940Z,5.60
2019-04-10T22:54:38.842Z,5.60
2019-04-10T22:57:06.882Z,5.50
2019-04-10T22:59:34.872Z,5.50
2019-04-10T23:02:10.840Z,5.50
2019-04-10T23:04:31.226Z,5.50
2019-04-10T23:06:58.361Z,5.40
2019-04-10T23:09:26.362Z,5.40
2019-04-10T23:11:53.997Z,5.30
2019-04-10T23:14:21.048Z,5.30
2019-04-10T23:16:48.396Z,5.20
2019-04-10T23:19:16.066Z,5.10
2019-04-10T23:21:43.158Z,5.10
2019-04-10T23:24:10.075Z,5.20
2019-04-10T23:26:37.503Z,5.20
2019-04-10T23:29:04.564Z,5.10
2019-04-10T23:31:31.976Z,4.90
2019-04-10T23:33:58.974Z,4.90
2019-04-10T23:36:26.494Z,4.90
2019-04-10T23:38:53.602Z,4.80
2019-04-10T23:41:21.201Z,4.70
2019-04-10T23:43:48.370Z,4.70
2019-04-10T23:46:15.434Z,4.70
2019-04-10T23:48:42.341Z,4.60
2019-04-10T23:51:09.253Z,4.50
2019-04-10T23:53:36.353Z,4.50
2019-04-10T23:56:04.255Z,4.50
2019-04-10T23:58:31.804Z,4.50
